This is the latest recevied weather packets stored in our database for station/object KG7KID-5. If no packets are shown the sender has not sent any weather packets the latest 1 day(s).
| Time | Temp. | Humidity | Pressure | Rain* | Wind** | Luminosity | Snow |
|---|---|---|---|---|---|---|---|
| 1778034910 | 17.78° C | 28% | 926.2 hPa | 0 mm | - | - | - |
| 1778034796 | 17.78° C | 28% | 926.2 hPa | 0 mm | - | - | - |
| 1778033296 | 18.33° C | 27% | 925.6 hPa | 0 mm | - | - | - |
| 1778031796 | 19.44° C | 25% | 925.1 hPa | 0 mm | - | - | - |
| 1778029397 | 20° C | 26% | 924.5 hPa | 0 mm | - | - | - |
| 1778029096 | 20° C | 26% | 924.5 hPa | 0 mm | - | - | - |
| 1778027897 | 20.56° C | 22% | 924.2 hPa | 0 mm | - | - | - |
| 1778027455 | 21.67° C | 21% | 924.1 hPa | 0 mm | - | - | - |
| 1778027296 | 21.67° C | 21% | 924.1 hPa | 0 mm | - | - | - |
| 1778026677 | 21.67° C | 22% | 923.9 hPa | 0 mm | - | - | - |
| 1778024994 | 21.11° C | 21% | 923.8 hPa | 0 mm | - | - | - |
| 1778022619 | 21.11° C | 22% | 923.6 hPa | 0 mm | - | - | - |
| 1778020819 | 20° C | 25% | 923.8 hPa | 0 mm | - | - | - |
| 1778018885 | 18.33° C | 32% | 924.1 hPa | 0 mm | - | - | - |
| 1778018768 | 18.33° C | 32% | 924.1 hPa | 0 mm | - | - | - |
| 1778017268 | 20° C | 31% | 924.3 hPa | 0 mm | - | - | - |
| 1778016368 | 20.56° C | 30% | 924.2 hPa | 0 mm | - | - | - |
| 1778015168 | 21.11° C | 29% | 924.3 hPa | 0 mm | - | - | - |
| 1778006274 | 20° C | 35% | 925.2 hPa | 0 mm | - | - | - |
| 1778005974 | 20° C | 38% | 925.5 hPa | 0 mm | - | - | - |
| 1778005675 | 20° C | 43% | 925.5 hPa | 0 mm | - | - | - |
| 1778005350 | 20.56° C | 39% | 925.5 hPa | 0 mm | - | - | - |
* Rain latest hour (hover to see other rain measurements)
** Current wind speed in m/s (hover to see current wind gust speed)